createdAt,value
2023-03-27T00:00:13.452Z,2.1
2023-03-27T00:01:26.284Z,2.1
2023-03-27T00:02:39.494Z,2.1
2023-03-27T00:03:52.213Z,2.1
2023-03-27T00:05:05.348Z,2
2023-03-27T00:06:18.409Z,2
2023-03-27T00:07:31.286Z,2
2023-03-27T00:08:44.306Z,1.9
2023-03-27T00:09:57.338Z,1.8
2023-03-27T00:11:10.325Z,1.8
2023-03-27T00:12:23.021Z,1.8
2023-03-27T00:13:36.306Z,1.8
2023-03-27T00:14:49.328Z,1.9
2023-03-27T00:16:02.327Z,1.8
2023-03-27T00:17:15.353Z,1.8
2023-03-27T00:18:28.332Z,1.8
2023-03-27T00:19:41.510Z,1.9
2023-03-27T00:20:54.422Z,1.9
2023-03-27T00:22:07.882Z,1.8
2023-03-27T00:23:20.343Z,1.8
2023-03-27T00:24:33.318Z,1.8
2023-03-27T00:25:46.322Z,1.8
2023-03-27T00:26:59.379Z,1.8
2023-03-27T00:28:12.348Z,1.8
2023-03-27T00:29:25.943Z,1.8
2023-03-27T00:30:38.323Z,1.8
2023-03-27T00:31:51.367Z,1.8
2023-03-27T00:33:04.358Z,1.8
2023-03-27T00:34:17.344Z,1.8
2023-03-27T00:35:30.341Z,1.8
2023-03-27T00:36:43.357Z,1.8
2023-03-27T00:37:56.333Z,1.8
2023-03-27T00:39:09.340Z,1.6
2023-03-27T00:40:22.238Z,1.6
2023-03-27T00:41:35.336Z,1.6
2023-03-27T00:42:48.337Z,1.6
2023-03-27T00:44:01.510Z,1.6
2023-03-27T00:45:14.524Z,1.6
2023-03-27T00:46:27.449Z,1.6
2023-03-27T00:47:40.399Z,1.6
2023-03-27T00:48:53.354Z,1.6
2023-03-27T00:50:06.361Z,1.6
2023-03-27T00:51:19.330Z,1.6
2023-03-27T00:52:32.340Z,1.6
2023-03-27T00:53:45.047Z,1.6
2023-03-27T00:54:58.520Z,1.6
2023-03-27T00:56:11.371Z,1.6
2023-03-27T00:57:24.354Z,1.6
2023-03-27T00:58:37.522Z,1.6
2023-03-27T00:59:50.346Z,1.6
2023-03-27T01:01:03.426Z,1.6
2023-03-27T01:02:16.403Z,1.6
2023-03-27T01:03:29.420Z,1.6
2023-03-27T01:04:42.406Z,1.6
2023-03-27T01:05:55.379Z,1.6
2023-03-27T01:07:08.319Z,1.6
2023-03-27T01:08:21.378Z,1.6
2023-03-27T01:09:34.585Z,1.6
2023-03-27T01:10:47.524Z,1.6
2023-03-27T01:12:00.344Z,1.6
2023-03-27T01:13:13.354Z,1.6
2023-03-27T01:14:26.283Z,1.4
2023-03-27T01:15:39.418Z,1.4
2023-03-27T01:16:52.433Z,1.4
2023-03-27T01:18:05.603Z,1.4
2023-03-27T01:19:18.399Z,1.4
2023-03-27T01:20:31.577Z,1.4
2023-03-27T01:21:44.460Z,1.4
2023-03-27T01:22:57.474Z,1.4
2023-03-27T01:24:10.389Z,1.4
2023-03-27T01:25:23.293Z,1.4
2023-03-27T01:26:37.210Z,1.4
2023-03-27T01:27:49.425Z,1.4
2023-03-27T01:29:02.427Z,1.4
2023-03-27T01:30:15.608Z,1.4
2023-03-27T01:31:28.886Z,1.4
2023-03-27T01:32:41.452Z,1.4
2023-03-27T01:33:54.434Z,1.4
2023-03-27T01:35:07.388Z,1.4
2023-03-27T01:36:20.398Z,1.4
2023-03-27T01:37:33.459Z,1.4
2023-03-27T01:38:47.128Z,1.4
2023-03-27T01:39:59.454Z,1.4
2023-03-27T01:41:12.439Z,1.4
2023-03-27T01:42:25.391Z,1.4
2023-03-27T01:43:38.390Z,1.4
2023-03-27T01:44:51.417Z,1.4
2023-03-27T01:46:04.444Z,1.4
2023-03-27T01:47:17.465Z,1.4
2023-03-27T01:48:30.432Z,1.4
2023-03-27T01:49:43.600Z,1.3
2023-03-27T01:50:56.581Z,1.3
2023-03-27T01:52:09.432Z,1.3
2023-03-27T01:53:22.438Z,1.3
2023-03-27T01:54:35.434Z,1.3
2023-03-27T01:55:48.442Z,1.3
2023-03-27T01:57:01.437Z,1.3
2023-03-27T01:58:14.460Z,1.3
2023-03-27T01:59:27.324Z,1.3
2023-03-27T02:00:50.727Z,1.3
2023-03-27T02:01:53.638Z,1.3
2023-03-27T02:03:06.498Z,1.3
2023-03-27T02:04:19.562Z,1.3
2023-03-27T02:05:32.461Z,1.3
2023-03-27T02:06:45.465Z,1.2
2023-03-27T02:07:58.447Z,1.1
2023-03-27T02:09:11.418Z,1.1
2023-03-27T02:10:24.428Z,1.1
2023-03-27T02:11:37.630Z,1.1
2023-03-27T02:12:50.467Z,1.2
2023-03-27T02:14:03.482Z,1.1
2023-03-27T02:15:22.750Z,1.1
2023-03-27T02:16:29.477Z,1.1
2023-03-27T02:17:42.483Z,1.1
2023-03-27T02:18:56.205Z,1.1
2023-03-27T02:20:08.450Z,1.1
2023-03-27T02:21:21.469Z,1.1
2023-03-27T02:22:37.876Z,1.1
2023-03-27T02:23:47.477Z,1.1
2023-03-27T02:25:00.628Z,1.1
2023-03-27T02:26:13.503Z,1.1
2023-03-27T02:27:26.466Z,1.1
2023-03-27T02:28:39.463Z,1.1
2023-03-27T02:29:53.087Z,1.1
2023-03-27T02:31:30.853Z,1.1
2023-03-27T02:32:18.587Z,0.9
2023-03-27T02:33:31.460Z,0.9
2023-03-27T02:34:44.450Z,0.9
2023-03-27T02:35:57.970Z,0.9
2023-03-27T02:37:10.628Z,0.9
2023-03-27T02:38:23.460Z,0.9
2023-03-27T02:39:36.453Z,0.9
2023-03-27T02:40:49.489Z,0.8
2023-03-27T02:42:02.493Z,0.7
2023-03-27T02:43:15.460Z,0.7
2023-03-27T02:44:28.601Z,0.7
2023-03-27T02:45:41.497Z,0.7
2023-03-27T02:46:54.497Z,0.7
2023-03-27T02:48:07.689Z,0.7
2023-03-27T02:49:20.468Z,0.7
2023-03-27T02:50:33.494Z,0.8
2023-03-27T02:51:46.506Z,0.8
2023-03-27T02:52:59.524Z,0.8
2023-03-27T02:54:12.646Z,0.8
2023-03-27T02:55:25.497Z,0.8
2023-03-27T02:56:38.577Z,0.8
2023-03-27T02:57:52.360Z,0.8
2023-03-27T02:59:04.520Z,0.8
2023-03-27T03:27:03.474Z,0.4
2023-03-27T03:28:16.406Z,0.4
2023-03-27T03:29:29.516Z,0.4
2023-03-27T03:30:42.459Z,0.4
2023-03-27T03:31:55.464Z,0.4
2023-03-27T03:33:08.612Z,0.4
2023-03-27T03:34:21.408Z,0.4
2023-03-27T03:35:34.402Z,0.4
2023-03-27T03:36:47.402Z,0.4
2023-03-27T03:38:00.578Z,0.4
2023-03-27T03:39:13.464Z,0.3
2023-03-27T03:40:26.579Z,0.3
2023-03-27T03:41:39.440Z,0.3
2023-03-27T03:42:52.439Z,0.3
2023-03-27T03:44:05.459Z,0.2
2023-03-27T03:45:18.435Z,0.2
2023-03-27T03:46:31.489Z,0.2
2023-03-27T03:47:44.432Z,0.2
2023-03-27T03:50:10.446Z,0.2
2023-03-27T03:51:23.936Z,0.2
2023-03-27T03:52:36.918Z,0.2
2023-03-27T03:53:49.459Z,0.2
2023-03-27T03:55:02.468Z,0.2
2023-03-27T03:56:15.449Z,0.2
2023-03-27T03:57:28.208Z,0.2
2023-03-27T03:58:41.429Z,0.2
2023-03-27T03:59:54.436Z,0.2
2023-03-27T04:01:07.575Z,0.2
2023-03-27T04:02:20.559Z,0.2
2023-03-27T04:03:33.490Z,0
2023-03-27T04:04:46.750Z,0
2023-03-27T04:05:59.477Z,0
2023-03-27T04:07:12.445Z,0.1
2023-03-27T04:08:25.455Z,0.1
2023-03-27T04:09:38.423Z,0.1
2023-03-27T04:10:51.458Z,0.1
2023-03-27T04:12:04.457Z,0.1
2023-03-27T04:13:17.461Z,0.1
2023-03-27T04:14:30.502Z,0.1
2023-03-27T04:15:43.489Z,0.1
2023-03-27T04:16:56.468Z,0.1
2023-03-27T04:18:09.540Z,-0.1
2023-03-27T04:19:22.489Z,-0.1
2023-03-27T04:20:35.503Z,-0.1
2023-03-27T04:21:48.510Z,-0.1
2023-03-27T04:23:01.641Z,-0.1
2023-03-27T04:24:14.532Z,-0.1
2023-03-27T04:25:27.657Z,-0.1
2023-03-27T04:26:40.472Z,-0.1
2023-03-27T04:27:53.460Z,-0.1
2023-03-27T04:29:06.339Z,-0.1
2023-03-27T04:30:19.510Z,-0.1
2023-03-27T04:31:32.516Z,0.1
2023-03-27T04:32:45.589Z,0.1
2023-03-27T04:33:58.474Z,0.1
2023-03-27T04:35:11.452Z,0.1
2023-03-27T04:36:24.503Z,0.1
2023-03-27T04:37:37.477Z,0.1
2023-03-27T04:38:50.525Z,0.1
2023-03-27T04:40:03.544Z,0
2023-03-27T04:41:16.624Z,0.1
2023-03-27T04:42:29.800Z,0.2
2023-03-27T04:43:42.202Z,0.2
2023-03-27T04:44:55.656Z,0.2
2023-03-27T04:46:08.530Z,0.2
2023-03-27T04:47:21.539Z,0.2
2023-03-27T04:48:34.505Z,0.2
2023-03-27T04:49:47.503Z,0.2
2023-03-27T04:51:00.610Z,0.2
2023-03-27T04:52:13.498Z,0.2
2023-03-27T04:53:26.491Z,0.2
2023-03-27T04:54:39.520Z,0.2
2023-03-27T04:55:52.503Z,0.2
2023-03-27T04:57:05.553Z,0.2
2023-03-27T04:58:18.507Z,0.2
2023-03-27T04:59:31.682Z,0.2
2023-03-27T05:00:44.555Z,0.2
2023-03-27T05:01:57.535Z,0.2
2023-03-27T05:03:10.602Z,0.2
2023-03-27T05:04:23.488Z,0.2
2023-03-27T05:05:36.543Z,0.2
2023-03-27T05:06:49.503Z,0.2
2023-03-27T05:08:02.513Z,0.2
2023-03-27T05:09:15.694Z,0.2
2023-03-27T05:10:28.567Z,0.2
2023-03-27T05:11:41.508Z,0.3
2023-03-27T05:12:56.514Z,0.3
2023-03-27T05:14:07.518Z,0.3
2023-03-27T05:15:20.492Z,0.3
2023-03-27T05:16:33.549Z,0.3
2023-03-27T05:17:46.536Z,0.3
2023-03-27T05:18:59.567Z,0.3
2023-03-27T05:20:12.513Z,0.3
2023-03-27T05:21:25.524Z,0.3
2023-03-27T05:22:38.577Z,0.3
2023-03-27T05:23:51.532Z,0.3
2023-03-27T05:25:04.611Z,0.3
2023-03-27T05:26:17.558Z,0.3
2023-03-27T05:27:30.545Z,0.3
2023-03-27T05:28:43.496Z,0.3
2023-03-27T05:29:56.594Z,0.4
2023-03-27T05:31:09.577Z,0.4
2023-03-27T05:32:22.651Z,0.4
2023-03-27T05:33:35.605Z,0.4
2023-03-27T05:34:48.699Z,0.4
2023-03-27T05:36:01.588Z,0.4
2023-03-27T05:37:14.529Z,0.4
2023-03-27T05:38:27.573Z,0.6
2023-03-27T05:39:40.554Z,0.6
2023-03-27T05:40:53.798Z,0.6
2023-03-27T05:42:06.612Z,0.6
2023-03-27T05:43:19.588Z,0.6
2023-03-27T05:44:32.581Z,0.7
2023-03-27T05:45:45.530Z,0.7
2023-03-27T05:46:58.763Z,0.6
2023-03-27T05:48:11.577Z,0.7
2023-03-27T05:49:24.554Z,0.7
2023-03-27T05:50:37.759Z,0.7
2023-03-27T05:51:50.734Z,0.9
2023-03-27T05:53:03.672Z,0.9
2023-03-27T05:54:16.744Z,1.1
2023-03-27T05:55:29.730Z,1
2023-03-27T05:56:42.600Z,0.9
2023-03-27T05:57:55.544Z,1.1
2023-03-27T05:59:08.549Z,1.1
2023-03-27T06:00:21.587Z,1.1
2023-03-27T06:01:34.590Z,1.2
2023-03-27T06:02:47.648Z,1.3
2023-03-27T06:04:00.612Z,1.3
2023-03-27T06:05:13.745Z,1.3
2023-03-27T06:06:26.768Z,1.3
2023-03-27T06:07:40.952Z,1.4
2023-03-27T06:08:52.631Z,1.4
2023-03-27T06:10:05.593Z,1.6
2023-03-27T06:11:18.587Z,1.6
2023-03-27T06:12:31.583Z,1.6
2023-03-27T06:13:44.750Z,1.7
2023-03-27T06:14:57.587Z,1.7
2023-03-27T06:16:10.658Z,1.8
2023-03-27T06:17:23.707Z,1.8
2023-03-27T06:18:36.639Z,1.9
2023-03-27T06:19:49.618Z,2
2023-03-27T06:21:02.643Z,1.9
2023-03-27T06:22:15.596Z,2
2023-03-27T06:23:28.626Z,2.1
2023-03-27T06:24:41.630Z,2.1
2023-03-27T06:25:54.765Z,2.1
2023-03-27T06:27:08.607Z,2.1
2023-03-27T06:28:20.588Z,2.2
2023-03-27T06:29:33.659Z,2.2
2023-03-27T06:30:46.654Z,2.2
2023-03-27T06:31:59.649Z,2.3
2023-03-27T06:33:12.670Z,2.3
2023-03-27T06:34:25.800Z,2.3
2023-03-27T06:35:38.855Z,2.3
2023-03-27T06:36:51.637Z,2.4
2023-03-27T06:38:04.719Z,2.4
2023-03-27T06:39:17.636Z,2.4
2023-03-27T06:40:30.600Z,2.4
2023-03-27T06:41:43.677Z,2.5
2023-03-27T06:42:56.699Z,2.6
2023-03-27T06:44:09.669Z,2.6
2023-03-27T06:45:22.810Z,2.6
2023-03-27T06:46:44.991Z,2.6
2023-03-27T06:47:54.618Z,2.7
2023-03-27T06:49:01.698Z,2.7
2023-03-27T06:50:14.642Z,2.8
2023-03-27T06:51:27.655Z,2.8
2023-03-27T06:52:40.621Z,2.9
2023-03-27T06:53:53.827Z,3
2023-03-27T06:55:06.633Z,3.1
2023-03-27T06:56:19.641Z,3.1
2023-03-27T06:57:32.623Z,3
2023-03-27T06:58:45.855Z,3
2023-03-27T07:00:00.952Z,3
2023-03-27T07:01:11.668Z,3
2023-03-27T07:02:24.680Z,3.1
2023-03-27T07:03:37.712Z,3.2
2023-03-27T07:04:58.057Z,3.3
2023-03-27T07:06:03.775Z,3.4
2023-03-27T07:07:16.648Z,3.4
2023-03-27T07:08:29.673Z,3.4
2023-03-27T07:09:42.675Z,3.6
2023-03-27T07:11:10.514Z,3.6
2023-03-27T07:12:08.629Z,3.7
2023-03-27T07:13:21.837Z,3.8
2023-03-27T07:14:34.846Z,3.8
2023-03-27T07:15:47.702Z,3.9
2023-03-27T07:17:00.682Z,4
2023-03-27T07:18:13.661Z,4.1
2023-03-27T07:19:26.829Z,4.2
2023-03-27T07:20:39.670Z,4.3
2023-03-27T07:21:52.850Z,4.3
2023-03-27T07:23:05.622Z,4.4
2023-03-27T07:24:18.656Z,4.4
2023-03-27T07:25:31.688Z,4.5
2023-03-27T07:26:44.626Z,4.6
2023-03-27T07:27:57.730Z,4.7
2023-03-27T07:29:10.796Z,4.8
2023-03-27T07:30:23.848Z,4.8
2023-03-27T07:31:51.497Z,4.9
2023-03-27T07:32:49.797Z,5
2023-03-27T07:34:02.802Z,5.1
2023-03-27T07:35:15.682Z,5.3
2023-03-27T07:36:28.685Z,5.3
2023-03-27T07:37:41.678Z,5.4
2023-03-27T07:38:54.849Z,5.5
2023-03-27T07:40:07.754Z,5.7
2023-03-27T07:41:20.674Z,5.8
2023-03-27T07:42:33.766Z,5.8
2023-03-27T07:43:46.685Z,5.9
2023-03-27T07:45:00.360Z,6
2023-03-27T07:46:12.702Z,6.1
2023-03-27T07:47:25.712Z,6.1
2023-03-27T07:48:38.720Z,6.2
2023-03-27T07:49:51.699Z,6.3
2023-03-27T07:51:13.173Z,6.4
2023-03-27T07:52:17.674Z,6.4
2023-03-27T07:53:33.135Z,6.4
2023-03-27T07:54:43.709Z,6.4
2023-03-27T07:55:56.807Z,6.4
2023-03-27T07:57:09.833Z,6.6
2023-03-27T07:58:22.732Z,6.8
2023-03-27T07:59:35.667Z,7
2023-03-27T08:00:48.749Z,6.9
2023-03-27T08:02:01.704Z,6.9
2023-03-27T08:03:14.897Z,7
2023-03-27T08:04:27.865Z,7.2
2023-03-27T08:05:40.655Z,7.3
2023-03-27T08:06:53.676Z,7.3
2023-03-27T08:08:06.680Z,7.3
2023-03-27T08:09:19.689Z,7.2
2023-03-27T08:10:32.708Z,7.1
2023-03-27T08:11:45.675Z,7.1
2023-03-27T08:12:58.708Z,7.1
2023-03-27T08:14:11.694Z,7.2
2023-03-27T08:15:24.700Z,7.2
2023-03-27T08:16:37.698Z,7.3
2023-03-27T08:17:50.716Z,7.5
2023-03-27T08:19:03.848Z,7.5
2023-03-27T08:20:16.794Z,7.3
2023-03-27T08:21:29.735Z,7.3
2023-03-27T08:22:42.703Z,7.3
2023-03-27T08:23:57.686Z,7.2
2023-03-27T08:25:08.731Z,7.2
2023-03-27T08:26:21.696Z,7.2
2023-03-27T08:27:34.706Z,7.2
2023-03-27T08:28:47.576Z,7.2
2023-03-27T08:30:00.701Z,7.1
2023-03-27T08:31:13.732Z,7.1
2023-03-27T08:32:26.729Z,6.9
2023-03-27T08:33:39.671Z,7.1
2023-03-27T08:34:52.682Z,7.1
2023-03-27T08:36:05.737Z,7.1
2023-03-27T08:37:18.593Z,7.2
2023-03-27T08:38:31.739Z,7.3
2023-03-27T08:39:44.756Z,7.4
2023-03-27T08:40:57.680Z,7.3
2023-03-27T08:42:10.852Z,7.5
2023-03-27T08:43:23.706Z,7.3
2023-03-27T08:44:36.715Z,7.3
2023-03-27T08:45:49.564Z,7.3
2023-03-27T08:47:02.716Z,7.4
2023-03-27T08:48:15.719Z,7.4
2023-03-27T08:49:28.756Z,7.4
2023-03-27T08:50:41.778Z,7.3
2023-03-27T08:51:54.691Z,7.3
2023-03-27T08:53:07.715Z,7.2
2023-03-27T08:54:20.722Z,7.2
2023-03-27T08:55:33.707Z,7.1
2023-03-27T08:56:46.750Z,7.1
2023-03-27T08:57:59.740Z,7.2
2023-03-27T08:59:12.985Z,7.2
2023-03-27T09:00:25.780Z,7.4
2023-03-27T09:01:38.814Z,7.3
2023-03-27T09:02:51.769Z,7.5
2023-03-27T09:04:05.061Z,7.7
2023-03-27T09:05:17.737Z,7.8
2023-03-27T09:06:30.684Z,8.1
2023-03-27T09:07:43.706Z,8.2
2023-03-27T09:08:56.717Z,8.4
2023-03-27T09:10:10.050Z,8.8
2023-03-27T09:11:22.692Z,8.7
2023-03-27T09:12:35.663Z,8.7
2023-03-27T09:13:48.653Z,8.6
2023-03-27T09:15:01.638Z,8.5
2023-03-27T09:16:14.666Z,8.4
2023-03-27T09:17:27.679Z,8.3
2023-03-27T09:18:40.644Z,8.3
2023-03-27T09:19:53.621Z,8.3
2023-03-27T09:21:06.640Z,8.3
2023-03-27T09:22:19.641Z,8.3
2023-03-27T09:23:32.626Z,8.4
2023-03-27T09:24:45.626Z,8.4
2023-03-27T09:25:58.804Z,8.4
2023-03-27T09:27:11.631Z,8.4
2023-03-27T09:28:24.637Z,8.4
2023-03-27T09:29:37.790Z,8.4
2023-03-27T09:30:50.649Z,8.4
2023-03-27T09:32:03.667Z,8.3
2023-03-27T09:33:16.667Z,8.2
2023-03-27T09:34:29.339Z,8.1
2023-03-27T09:35:42.652Z,8.2
2023-03-27T09:36:55.631Z,8.1
2023-03-27T09:38:08.646Z,7.9
2023-03-27T09:39:21.623Z,7.8
2023-03-27T09:40:34.696Z,7.7
2023-03-27T09:41:47.638Z,7.5
2023-03-27T09:43:00.624Z,7.5
2023-03-27T09:44:13.794Z,7.6
2023-03-27T09:45:26.508Z,7.7
2023-03-27T09:46:39.663Z,7.9
2023-03-27T09:47:52.736Z,8.1
2023-03-27T09:49:05.627Z,8.2
2023-03-27T09:50:18.743Z,8.3
2023-03-27T09:51:31.656Z,8.2
2023-03-27T09:52:44.688Z,8.1
2023-03-27T09:53:57.653Z,7.9
2023-03-27T09:55:10.583Z,7.8
2023-03-27T09:56:23.653Z,7.7
2023-03-27T09:57:36.830Z,7.4
2023-03-27T09:58:49.650Z,7.4
2023-03-27T10:00:02.651Z,7.3
2023-03-27T10:01:15.712Z,7.2
2023-03-27T10:02:28.689Z,7.2
2023-03-27T10:03:41.644Z,7.2
2023-03-27T10:04:54.714Z,7.2
2023-03-27T10:06:07.647Z,7.1
2023-03-27T10:07:20.659Z,7.1
2023-03-27T10:08:33.518Z,7.2
2023-03-27T10:09:46.671Z,7.2
2023-03-27T10:10:59.871Z,7.2
2023-03-27T10:12:12.666Z,7.1
2023-03-27T10:13:25.736Z,7.2
2023-03-27T10:14:38.710Z,7.2
2023-03-27T10:15:51.884Z,7.2
2023-03-27T10:17:04.757Z,7.2
2023-03-27T10:18:17.743Z,7.2
2023-03-27T10:19:30.673Z,7.2
2023-03-27T10:20:43.375Z,7.4
2023-03-27T10:21:56.860Z,7.6
2023-03-27T10:23:09.724Z,7.7
2023-03-27T10:24:22.673Z,7.8
2023-03-27T10:25:35.643Z,8
2023-03-27T10:26:48.690Z,8.2
2023-03-27T10:28:02.088Z,8.3
2023-03-27T10:29:14.714Z,8.4
2023-03-27T10:30:27.738Z,8.4
2023-03-27T10:31:40.659Z,7.9
2023-03-27T10:32:53.720Z,7.7
2023-03-27T10:34:06.684Z,7.3
2023-03-27T10:35:19.692Z,7.1
2023-03-27T10:36:32.647Z,6.9
2023-03-27T10:37:49.760Z,6.8
2023-03-27T10:38:58.663Z,6.8
2023-03-27T10:40:11.706Z,6.6
2023-03-27T10:41:27.790Z,6.5
2023-03-27T10:42:37.702Z,6.4
2023-03-27T10:43:50.627Z,6.2
2023-03-27T10:45:03.652Z,6.1
2023-03-27T10:46:16.624Z,6.1
2023-03-27T10:47:29.784Z,5.9
2023-03-27T10:48:42.740Z,5.9
2023-03-27T10:49:55.653Z,5.9
2023-03-27T10:51:08.655Z,5.9
2023-03-27T10:52:21.654Z,5.8
2023-03-27T10:53:34.804Z,5.7
2023-03-27T10:54:47.702Z,5.7
2023-03-27T10:56:00.511Z,5.6
2023-03-27T10:57:13.755Z,5.4
2023-03-27T10:58:26.689Z,5.3
2023-03-27T10:59:42.035Z,5.1
2023-03-27T11:00:52.677Z,4.9
2023-03-27T11:02:06.434Z,4.8
2023-03-27T11:03:18.669Z,4.7
2023-03-27T11:04:31.668Z,4.5
2023-03-27T11:05:44.647Z,4.4
2023-03-27T11:06:57.645Z,4.3
2023-03-27T11:08:10.623Z,4.3
2023-03-27T11:09:24.321Z,4.3
2023-03-27T11:10:36.529Z,4.3
2023-03-27T11:11:49.683Z,4.3
2023-03-27T11:13:02.753Z,4.4
2023-03-27T11:14:15.700Z,4.4
2023-03-27T11:15:28.718Z,4.5
2023-03-27T11:16:41.734Z,4.6
2023-03-27T11:17:54.658Z,4.7
2023-03-27T11:19:07.661Z,4.8
2023-03-27T11:20:20.700Z,4.8
2023-03-27T11:21:33.689Z,4.9
2023-03-27T11:22:46.691Z,5
2023-03-27T11:23:59.697Z,5.1
2023-03-27T11:25:12.722Z,5.2
2023-03-27T11:26:25.659Z,5.2
2023-03-27T11:27:38.830Z,5.3
2023-03-27T11:28:51.668Z,5.3
2023-03-27T11:30:04.774Z,5.3
2023-03-27T11:31:17.873Z,5.2
2023-03-27T11:32:30.676Z,5
2023-03-27T11:33:43.693Z,5.1
2023-03-27T11:34:56.684Z,5.1
2023-03-27T11:36:09.722Z,4.9
2023-03-27T11:37:22.716Z,4.9
2023-03-27T11:38:35.688Z,4.8
2023-03-27T11:39:48.684Z,4.8
2023-03-27T11:41:01.715Z,4.7
2023-03-27T11:42:14.691Z,4.7
2023-03-27T11:43:27.750Z,4.7
2023-03-27T11:44:40.977Z,4.6
2023-03-27T11:45:53.701Z,4.6
2023-03-27T11:47:06.702Z,4.6
2023-03-27T11:48:19.813Z,4.6
2023-03-27T11:49:32.693Z,4.6
2023-03-27T11:50:45.658Z,4.6
2023-03-27T11:51:58.700Z,4.6
2023-03-27T11:53:11.710Z,4.6
2023-03-27T11:54:24.697Z,4.6
2023-03-27T11:55:37.698Z,4.6
2023-03-27T11:56:50.748Z,4.6
2023-03-27T11:58:03.734Z,4.6
2023-03-27T11:59:16.720Z,4.7
2023-03-27T12:00:29.718Z,4.7
2023-03-27T12:01:42.770Z,4.7
2023-03-27T12:02:55.606Z,4.7
2023-03-27T12:04:08.739Z,4.8
2023-03-27T12:05:21.696Z,4.8
2023-03-27T12:06:34.432Z,4.9
2023-03-27T12:07:48.090Z,4.9
2023-03-27T12:09:00.856Z,5.1
2023-03-27T12:10:13.919Z,5
2023-03-27T12:11:26.719Z,5.2
2023-03-27T12:12:39.711Z,5.2
2023-03-27T12:14:00.840Z,5.3
2023-03-27T12:15:05.674Z,5.3
2023-03-27T12:16:18.755Z,5.4
2023-03-27T12:17:31.906Z,5.4
2023-03-27T12:18:48.210Z,5.6
2023-03-27T12:19:57.718Z,5.7
2023-03-27T12:21:10.684Z,5.8
2023-03-27T12:22:24.503Z,5.9
2023-03-27T12:23:36.716Z,6
2023-03-27T12:24:57.367Z,6.1
2023-03-27T12:26:02.768Z,6.4
2023-03-27T12:27:15.764Z,6.4
2023-03-27T12:28:28.438Z,6.5
2023-03-27T12:29:41.726Z,6.7
2023-03-27T12:30:54.832Z,6.7
2023-03-27T12:32:08.119Z,6.8
2023-03-27T12:33:20.724Z,6.9
2023-03-27T12:34:33.717Z,7
2023-03-27T12:35:47.000Z,6.9
2023-03-27T12:36:59.624Z,6.8
2023-03-27T12:38:12.909Z,6.7
2023-03-27T12:39:25.737Z,6.5
2023-03-27T12:40:39.092Z,6.4
2023-03-27T12:41:51.761Z,6.3
2023-03-27T12:43:04.750Z,6.2
2023-03-27T12:44:17.715Z,6.1
2023-03-27T12:45:31.853Z,5.8
2023-03-27T12:46:43.770Z,5.7
2023-03-27T12:47:56.792Z,5.7
2023-03-27T12:49:09.746Z,5.4
2023-03-27T12:50:22.861Z,5.3
2023-03-27T12:51:36.161Z,5.2
2023-03-27T12:52:48.735Z,5
2023-03-27T12:54:01.729Z,5
2023-03-27T12:55:14.764Z,4.9
2023-03-27T12:56:27.932Z,4.9
2023-03-27T12:57:40.874Z,4.9
2023-03-27T12:58:53.753Z,4.8
2023-03-27T13:00:06.774Z,4.8
2023-03-27T13:01:19.784Z,4.8
2023-03-27T13:02:32.802Z,4.8
2023-03-27T13:03:45.755Z,4.8
2023-03-27T13:04:58.789Z,4.8
2023-03-27T13:06:11.692Z,4.8
2023-03-27T13:07:24.727Z,4.8
2023-03-27T13:08:37.822Z,4.8
2023-03-27T13:09:50.716Z,4.9
2023-03-27T13:11:03.731Z,4.9
2023-03-27T13:12:16.925Z,4.9
2023-03-27T13:13:29.788Z,5
2023-03-27T13:14:42.848Z,5.1
2023-03-27T13:15:55.999Z,5
2023-03-27T13:17:08.763Z,5.2
2023-03-27T13:18:21.746Z,5.2
2023-03-27T13:19:34.754Z,5.3
2023-03-27T13:20:47.922Z,5.3
2023-03-27T13:22:00.785Z,5.3
2023-03-27T13:23:13.803Z,5.4
2023-03-27T13:24:26.759Z,5.4
2023-03-27T13:25:39.763Z,5.6
2023-03-27T13:26:52.739Z,5.7
2023-03-27T13:28:05.771Z,5.8
2023-03-27T13:29:19.317Z,5.9
2023-03-27T13:30:31.776Z,6.1
2023-03-27T13:31:44.964Z,6.1
2023-03-27T13:32:57.876Z,6.1
2023-03-27T13:34:10.933Z,6.3
2023-03-27T13:35:23.842Z,6.4
2023-03-27T13:36:36.766Z,6.5
2023-03-27T13:37:49.676Z,6.7
2023-03-27T13:39:02.810Z,6.8
2023-03-27T13:40:15.749Z,7
2023-03-27T13:41:28.788Z,7.1
2023-03-27T13:42:41.786Z,7.2
2023-03-27T13:43:54.805Z,7.2
2023-03-27T13:45:07.758Z,7.2
2023-03-27T13:46:20.778Z,7.4
2023-03-27T13:47:33.881Z,7.4
2023-03-27T13:48:46.788Z,7.3
2023-03-27T13:49:59.808Z,7.2
2023-03-27T13:51:12.937Z,6.9
2023-03-27T13:52:25.917Z,6.9
2023-03-27T13:53:38.810Z,6.8
2023-03-27T13:54:51.824Z,6.6
2023-03-27T13:56:04.669Z,6.5
2023-03-27T13:57:17.788Z,6.4
2023-03-27T13:58:30.799Z,6.3
2023-03-27T13:59:43.761Z,6.2
2023-03-27T14:00:56.782Z,6.2
2023-03-27T14:02:09.798Z,6.1
2023-03-27T14:03:22.834Z,6.1
2023-03-27T14:04:36.290Z,5.9
2023-03-27T14:05:48.888Z,5.9
2023-03-27T14:07:01.839Z,5.8
2023-03-27T14:08:14.928Z,5.7
2023-03-27T14:09:27.656Z,5.7
2023-03-27T14:10:40.789Z,5.7
2023-03-27T14:11:53.798Z,5.6
2023-03-27T14:13:06.819Z,5.6
2023-03-27T14:14:19.774Z,5.6
2023-03-27T14:15:32.770Z,5.6
2023-03-27T14:16:45.833Z,5.6
2023-03-27T14:17:58.964Z,5.6
2023-03-27T14:19:11.817Z,5.4
2023-03-27T14:20:24.865Z,5.4
2023-03-27T14:21:38.960Z,5.3
2023-03-27T14:22:50.803Z,5.3
2023-03-27T14:24:03.816Z,5.3
2023-03-27T14:25:17.829Z,5.3
2023-03-27T14:26:29.822Z,5.3
2023-03-27T14:27:42.812Z,5.3
2023-03-27T14:28:55.859Z,5.3
2023-03-27T14:30:08.832Z,5.3
2023-03-27T14:31:21.821Z,5.3
2023-03-27T14:32:35.022Z,5.5
2023-03-27T14:33:47.892Z,5.4
2023-03-27T14:35:00.813Z,5.4
2023-03-27T14:36:13.800Z,5.6
2023-03-27T14:37:26.768Z,5.6
2023-03-27T14:38:39.827Z,5.7
2023-03-27T14:39:52.631Z,5.7
2023-03-27T14:41:05.778Z,5.7
2023-03-27T14:42:18.799Z,5.7
2023-03-27T14:43:31.802Z,5.7
2023-03-27T14:44:44.866Z,5.8
2023-03-27T14:45:57.986Z,5.8
2023-03-27T14:47:10.830Z,5.7
2023-03-27T14:48:23.811Z,5.7
2023-03-27T14:49:36.925Z,5.6
2023-03-27T14:50:49.793Z,5.6
2023-03-27T14:52:02.810Z,5.4
2023-03-27T14:53:15.931Z,5.4
2023-03-27T14:54:28.990Z,5.3
2023-03-27T14:55:41.809Z,5.3
2023-03-27T14:56:54.904Z,5.3
2023-03-27T14:58:09.706Z,5.2
2023-03-27T14:59:20.870Z,5.2
2023-03-27T15:00:33.828Z,5.2
2023-03-27T15:01:46.853Z,5.2
2023-03-27T15:03:00.089Z,5.2
2023-03-27T15:04:12.926Z,5.3
2023-03-27T15:05:25.826Z,5.3
2023-03-27T15:06:38.809Z,5.3
2023-03-27T15:07:51.843Z,5.5
2023-03-27T15:09:04.822Z,5.4
2023-03-27T15:10:18.505Z,5.4
2023-03-27T15:11:30.957Z,5.6
2023-03-27T15:12:43.842Z,5.7
2023-03-27T15:13:56.841Z,5.7
2023-03-27T15:15:10.016Z,5.7
2023-03-27T15:16:23.028Z,5.7
2023-03-27T15:17:35.793Z,5.8
2023-03-27T15:18:48.829Z,5.8
2023-03-27T15:20:01.866Z,5.8
2023-03-27T15:21:14.676Z,5.8
2023-03-27T15:22:27.865Z,5.8
2023-03-27T15:23:40.836Z,5.8
2023-03-27T15:24:54.167Z,5.8
2023-03-27T15:26:06.882Z,5.9
2023-03-27T15:27:19.857Z,5.9
2023-03-27T15:28:32.860Z,5.9
2023-03-27T15:29:45.819Z,5.9
2023-03-27T15:30:58.756Z,5.9
2023-03-27T15:32:11.870Z,5.9
2023-03-27T15:33:24.751Z,5.9
2023-03-27T15:34:37.908Z,5.9
2023-03-27T15:35:51.017Z,5.9
2023-03-27T15:37:03.899Z,6.1
2023-03-27T15:38:16.946Z,6.1
2023-03-27T15:39:30.603Z,6.1
2023-03-27T15:40:42.773Z,6.1
2023-03-27T15:41:55.808Z,6.2
2023-03-27T15:43:08.866Z,6.2
2023-03-27T15:44:21.751Z,6.2
2023-03-27T15:45:34.911Z,6.2
2023-03-27T15:46:48.087Z,6.4
2023-03-27T15:48:00.937Z,6.4
2023-03-27T15:49:13.878Z,6.4
2023-03-27T15:50:26.884Z,6.4
2023-03-27T15:51:39.901Z,6.5
2023-03-27T15:52:52.733Z,6.5
2023-03-27T15:54:05.715Z,6.6
2023-03-27T15:55:18.846Z,6.6
2023-03-27T15:56:32.058Z,6.6
2023-03-27T15:57:44.888Z,6.6
2023-03-27T15:58:57.838Z,6.6
2023-03-27T16:00:10.847Z,6.6
2023-03-27T16:01:23.865Z,6.6
2023-03-27T16:02:36.947Z,6.6
2023-03-27T16:03:50.236Z,6.6
2023-03-27T16:05:02.907Z,6.6
2023-03-27T16:06:15.907Z,6.6
2023-03-27T16:07:28.870Z,6.6
2023-03-27T16:08:41.866Z,6.8
2023-03-27T16:09:54.906Z,6.7
2023-03-27T16:11:07.923Z,6.6
2023-03-27T16:12:20.879Z,6.6
2023-03-27T16:13:33.880Z,6.6
2023-03-27T16:14:46.750Z,6.6
2023-03-27T16:16:00.128Z,6.6
2023-03-27T16:17:13.197Z,6.6
2023-03-27T16:18:25.842Z,6.6
2023-03-27T16:19:38.914Z,6.6
2023-03-27T16:20:51.890Z,6.8
2023-03-27T16:22:04.924Z,6.8
2023-03-27T16:23:17.973Z,6.8
2023-03-27T16:24:30.859Z,6.8
2023-03-27T16:25:43.883Z,6.8
2023-03-27T16:26:57.073Z,6.8
2023-03-27T16:28:09.905Z,6.9
2023-03-27T16:29:22.917Z,6.9
2023-03-27T16:30:35.730Z,7
2023-03-27T16:31:48.936Z,7
2023-03-27T16:33:01.903Z,7
2023-03-27T16:34:22.016Z,7
2023-03-27T16:35:28.000Z,7
2023-03-27T16:36:40.902Z,7
2023-03-27T16:37:53.880Z,7
2023-03-27T16:39:06.748Z,7.2
2023-03-27T16:40:19.905Z,7.2
2023-03-27T16:41:33.689Z,7.2
2023-03-27T16:42:45.840Z,7.2
2023-03-27T16:43:58.858Z,7.2
2023-03-27T16:45:12.075Z,7.2
2023-03-27T16:46:24.932Z,7.2
2023-03-27T16:47:38.240Z,7.2
2023-03-27T16:48:51.110Z,7.2
2023-03-27T16:51:16.885Z,7.2
2023-03-27T16:52:29.979Z,7.1
2023-03-27T16:53:43.008Z,7
2023-03-27T16:54:55.873Z,7
2023-03-27T16:56:08.894Z,7
2023-03-27T16:57:21.778Z,7
2023-03-27T16:58:35.068Z,6.9
2023-03-27T16:59:47.876Z,6.9
2023-03-27T17:01:00.899Z,6.9
2023-03-27T17:02:13.740Z,6.9
2023-03-27T17:03:26.728Z,6.9
2023-03-27T17:04:39.915Z,6.8
2023-03-27T17:05:52.905Z,6.8
2023-03-27T17:07:06.085Z,6.8
2023-03-27T17:08:18.929Z,6.8
2023-03-27T17:09:31.912Z,6.8
2023-03-27T17:10:44.937Z,6.8
2023-03-27T17:11:57.934Z,6.8
2023-03-27T17:13:10.873Z,6.8
2023-03-27T17:14:23.921Z,6.8
2023-03-27T17:15:36.918Z,6.8
2023-03-27T17:16:49.756Z,6.6